Time;durP1;ratioP1;P1;durP2;ratioP2;P2;SDS_P1;SDS_P2;PMS_P1;PMS_P2;Temp;Humidity;BMP_temperature;BMP_pressure;BME280_temperature;BME280_humidity;BME280_pressure;Samples;Min_cycle;Max_cycle;Signal;HPM_P1;HPM_P2
2023/07/25 00:01:28;;;;;;;3.08;1.50;;;;;;;;;;5047287;28;20179;-46
2023/07/25 00:03:54;;;;;;;2.05;1.50;;;;;;;;;;5045935;28;20187;-46
2023/07/25 00:06:20;;;;;;;2.92;1.60;;;;;;;;;;5050037;28;20191;-45
2023/07/25 00:08:47;;;;;;;3.28;1.55;;;;;;;;;;5054383;28;20474;-46
2023/07/25 00:11:13;;;;;;;1.52;1.42;;;;;;;;;;5046479;28;20253;-46
2023/07/25 00:13:39;;;;;;;1.95;1.40;;;;;;;;;;5055700;28;20179;-46
2023/07/25 00:16:05;;;;;;;1.50;1.40;;;;;;;;;;5052800;28;20547;-46
2023/07/25 00:18:31;;;;;;;3.33;1.52;;;;;;;;;;5054855;28;20262;-46
2023/07/25 00:20:57;;;;;;;1.60;1.35;;;;;;;;;;5046819;28;20281;-45
2023/07/25 00:23:23;;;;;;;2.65;1.80;;;;;;;;;;5062198;28;20188;-45
2023/07/25 00:25:49;;;;;;;1.73;1.50;;;;;;;;;;5054912;28;20570;-45
2023/07/25 00:28:15;;;;;;;2.17;1.40;;;;;;;;;;5055141;28;20174;-45
2023/07/25 00:30:41;;;;;;;1.77;1.33;;;;;;;;;;5046923;28;20467;-46
2023/07/25 00:33:07;;;;;;;1.90;1.42;;;;;;;;;;5054468;28;20229;-46
2023/07/25 00:35:33;;;;;;;2.00;1.35;;;;;;;;;;5040788;28;20198;-46
2023/07/25 00:37:59;;;;;;;4.43;1.40;;;;;;;;;;5047264;28;20211;-46
2023/07/25 00:40:25;;;;;;;1.33;1.23;;;;;;;;;;5053882;28;20180;-46
2023/07/25 00:42:57;;;;;;;3.17;1.40;;;;;;;;;;5054528;28;20190;-46
2023/07/25 00:45:24;;;;;;;2.58;1.50;;;;;;;;;;5047495;28;20175;-45
2023/07/25 00:47:50;;;;;;;1.48;1.30;;;;;;;;;;5054336;28;20187;-45
2023/07/25 00:50:16;;;;;;;2.72;1.70;;;;;;;;;;5050673;28;20187;-45
2023/07/25 00:52:42;;;;;;;2.40;1.67;;;;;;;;;;5061667;28;20201;-45
2023/07/25 00:55:08;;;;;;;2.70;1.58;;;;;;;;;;5053952;28;20203;-45
2023/07/25 00:57:34;;;;;;;1.33;1.23;;;;;;;;;;5054661;28;20245;-45
2023/07/25 01:00:00;;;;;;;1.60;1.35;;;;;;;;;;5054246;28;20207;-46
2023/07/25 01:02:26;;;;;;;2.15;1.50;;;;;;;;;;5048648;28;20184;-45
2023/07/25 01:04:52;;;;;;;1.65;1.42;;;;;;;;;;5052156;28;20209;-45
2023/07/25 01:07:19;;;;;;;1.33;1.20;;;;;;;;;;5038583;28;20580;-45
2023/07/25 01:09:46;;;;;;;1.77;1.35;;;;;;;;;;5051098;28;20233;-45
2023/07/25 01:12:12;;;;;;;2.25;1.30;;;;;;;;;;5053410;28;20627;-45
2023/07/25 01:14:38;;;;;;;2.55;1.20;;;;;;;;;;5053022;28;20195;-46
2023/07/25 01:17:18;;;;;;;1.30;1.20;;;;;;;;;;5054197;28;20209;-46
2023/07/25 01:19:46;;;;;;;2.03;1.30;;;;;;;;;;5053929;28;20187;-45
2023/07/25 01:22:12;;;;;;;2.53;1.58;;;;;;;;;;5059800;28;20187;-45
2023/07/25 01:24:42;;;;;;;1.48;1.38;;;;;;;;;;5074232;28;20202;-45
2023/07/25 01:27:08;;;;;;;1.90;1.30;;;;;;;;;;5043831;28;20193;-46
2023/07/25 01:29:34;;;;;;;1.27;1.17;;;;;;;;;;5045873;28;20186;-46
2023/07/25 01:32:00;;;;;;;2.60;1.40;;;;;;;;;;5047658;28;20187;-45
2023/07/25 01:34:25;;;;;;;1.65;1.30;;;;;;;;;;5047249;28;20216;-45
2023/07/25 01:36:51;;;;;;;1.60;1.10;;;;;;;;;;5049188;28;20305;-45
2023/07/25 01:39:17;;;;;;;1.83;1.63;;;;;;;;;;5049373;28;20183;-45
2023/07/25 01:41:44;;;;;;;1.40;1.30;;;;;;;;;;5048634;28;20209;-45
2023/07/25 01:44:10;;;;;;;1.48;1.33;;;;;;;;;;5050625;28;20191;-45
2023/07/25 01:46:36;;;;;;;1.65;1.38;;;;;;;;;;5049285;28;20183;-46
2023/07/25 01:49:02;;;;;;;1.42;1.33;;;;;;;;;;5052707;28;20581;-46
2023/07/25 01:51:28;;;;;;;1.88;1.20;;;;;;;;;;5052641;28;20214;-46
2023/07/25 01:53:54;;;;;;;1.83;1.30;;;;;;;;;;5058329;28;20223;-46
2023/07/25 01:56:22;;;;;;;1.73;1.30;;;;;;;;;;5053301;28;20256;-46
2023/07/25 01:58:48;;;;;;;1.65;1.20;;;;;;;;;;5053681;28;20211;-45
2023/07/25 02:01:14;;;;;;;1.45;1.27;;;;;;;;;;5056544;28;20517;-45
2023/07/25 02:03:40;;;;;;;1.65;1.38;;;;;;;;;;5044426;28;20214;-45
2023/07/25 02:06:06;;;;;;;1.55;1.40;;;;;;;;;;5056949;28;20175;-45
2023/07/25 02:08:32;;;;;;;2.33;1.38;;;;;;;;;;5057520;28;20175;-45
2023/07/25 02:10:58;;;;;;;3.50;1.50;;;;;;;;;;5056978;28;20183;-45
2023/07/25 02:13:24;;;;;;;1.10;0.93;;;;;;;;;;5057431;28;20194;-45
2023/07/25 02:15:50;;;;;;;2.10;1.55;;;;;;;;;;5055684;28;20193;-45
2023/07/25 02:18:16;;;;;;;2.50;1.30;;;;;;;;;;5057198;28;20269;-45
2023/07/25 02:20:42;;;;;;;1.38;1.20;;;;;;;;;;5053951;28;20229;-45
2023/07/25 02:23:08;;;;;;;1.27;1.17;;;;;;;;;;5065508;28;20530;-45
2023/07/25 02:25:34;;;;;;;1.33;0.88;;;;;;;;;;5053224;28;20285;-45
2023/07/25 02:27:59;;;;;;;2.28;1.30;;;;;;;;;;5056773;28;20244;-45
2023/07/25 02:30:25;;;;;;;1.20;0.93;;;;;;;;;;5053676;28;20196;-45
2023/07/25 02:32:51;;;;;;;1.75;1.10;;;;;;;;;;5054375;28;20190;-45
2023/07/25 02:35:17;;;;;;;1.77;1.52;;;;;;;;;;5054924;28;20178;-45
2023/07/25 02:37:44;;;;;;;3.00;1.17;;;;;;;;;;5052785;28;20203;-45
2023/07/25 02:40:10;;;;;;;1.27;1.02;;;;;;;;;;5053367;28;20175;-46
2023/07/25 02:42:36;;;;;;;2.00;1.25;;;;;;;;;;5048642;28;20553;-46
2023/07/25 02:45:02;;;;;;;1.52;1.15;;;;;;;;;;5046110;28;20271;-46
2023/07/25 02:47:28;;;;;;;1.40;0.98;;;;;;;;;;5037126;28;20176;-46
2023/07/25 02:49:54;;;;;;;3.15;1.20;;;;;;;;;;5053483;28;20806;-46
2023/07/25 02:52:20;;;;;;;2.03;1.20;;;;;;;;;;5058769;28;20219;-46
2023/07/25 02:54:46;;;;;;;1.15;1.05;;;;;;;;;;5058210;28;20990;-45
2023/07/25 02:57:12;;;;;;;2.42;1.20;;;;;;;;;;5056191;28;20202;-45
2023/07/25 02:59:37;;;;;;;2.08;1.45;;;;;;;;;;5056759;28;20566;-45
2023/07/25 03:02:04;;;;;;;2.00;1.30;;;;;;;;;;5048338;28;20253;-46
2023/07/25 03:04:30;;;;;;;1.83;1.45;;;;;;;;;;5047908;28;20179;-46
2023/07/25 03:06:56;;;;;;;2.55;1.60;;;;;;;;;;5045339;28;20574;-46
2023/07/25 03:09:22;;;;;;;1.70;1.52;;;;;;;;;;5054226;28;20191;-46
2023/07/25 03:11:48;;;;;;;2.67;1.55;;;;;;;;;;5053845;28;20237;-45
2023/07/25 03:14:14;;;;;;;1.48;1.30;;;;;;;;;;5056772;28;20183;-46
2023/07/25 03:16:40;;;;;;;1.15;1.05;;;;;;;;;;5051805;28;20199;-46
2023/07/25 03:19:05;;;;;;;1.83;1.50;;;;;;;;;;5055499;28;20179;-46
2023/07/25 03:21:31;;;;;;;1.63;1.10;;;;;;;;;;5056329;28;20175;-45
2023/07/25 03:23:57;;;;;;;2.50;1.40;;;;;;;;;;5057256;28;20241;-45
2023/07/25 03:26:23;;;;;;;1.38;1.27;;;;;;;;;;5055654;28;20225;-45
2023/07/25 03:28:49;;;;;;;1.40;1.30;;;;;;;;;;5055735;28;20260;-45
2023/07/25 03:31:15;;;;;;;2.35;1.23;;;;;;;;;;5054665;28;20207;-45
2023/07/25 03:33:41;;;;;;;1.10;1.00;;;;;;;;;;5051595;28;20188;-46
2023/07/25 03:36:07;;;;;;;1.83;1.20;;;;;;;;;;5045026;28;20203;-46
2023/07/25 03:38:33;;;;;;;1.48;1.10;;;;;;;;;;5054152;28;20262;-46
2023/07/25 03:40:59;;;;;;;2.10;1.55;;;;;;;;;;5051677;28;20188;-46
2023/07/25 03:43:25;;;;;;;4.50;1.65;;;;;;;;;;5060089;28;20174;-46
2023/07/25 03:45:51;;;;;;;3.35;1.98;;;;;;;;;;5049508;28;20464;-46
2023/07/25 03:48:17;;;;;;;2.35;1.48;;;;;;;;;;5060220;28;20224;-46
2023/07/25 03:50:43;;;;;;;2.35;1.60;;;;;;;;;;5043426;28;20203;-46
2023/07/25 03:53:09;;;;;;;4.00;1.70;;;;;;;;;;5056878;28;20195;-46
2023/07/25 03:55:35;;;;;;;2.63;1.42;;;;;;;;;;5057220;28;20202;-46
2023/07/25 03:58:01;;;;;;;2.70;1.33;;;;;;;;;;5057915;28;20209;-46
2023/07/25 04:00:27;;;;;;;2.42;1.77;;;;;;;;;;5057977;28;20441;-46
2023/07/25 04:02:53;;;;;;;4.22;1.73;;;;;;;;;;5058142;28;20164;-46
2023/07/25 04:05:19;;;;;;;2.20;1.55;;;;;;;;;;5057923;28;20174;-46
2023/07/25 04:07:44;;;;;;;2.70;1.70;;;;;;;;;;5057428;28;20187;-46
2023/07/25 04:10:10;;;;;;;5.15;1.67;;;;;;;;;;5056829;28;20171;-46
2023/07/25 04:12:36;;;;;;;5.68;1.63;;;;;;;;;;5057872;28;20182;-46
2023/07/25 04:15:02;;;;;;;1.65;1.55;;;;;;;;;;5057456;28;20228;-46
2023/07/25 04:17:28;;;;;;;1.67;1.27;;;;;;;;;;5057604;28;20241;-46
2023/07/25 04:19:54;;;;;;;2.25;1.80;;;;;;;;;;5057094;28;20448;-46
2023/07/25 04:22:20;;;;;;;2.45;1.58;;;;;;;;;;5057673;28;20297;-46
2023/07/25 04:24:46;;;;;;;2.50;1.33;;;;;;;;;;5057491;28;20183;-46
2023/07/25 04:27:12;;;;;;;2.10;1.33;;;;;;;;;;5057768;28;20193;-46
2023/07/25 04:29:38;;;;;;;2.45;1.60;;;;;;;;;;5057357;28;20181;-46
2023/07/25 04:32:04;;;;;;;2.28;1.23;;;;;;;;;;5057409;28;20177;-46
2023/07/25 04:34:30;;;;;;;2.53;1.42;;;;;;;;;;5057451;28;20546;-45
2023/07/25 04:36:56;;;;;;;3.63;1.80;;;;;;;;;;5057309;28;20237;-45
2023/07/25 04:39:21;;;;;;;2.20;1.35;;;;;;;;;;5057302;28;20175;-45
2023/07/25 04:41:47;;;;;;;3.33;1.80;;;;;;;;;;5057262;28;20168;-45
2023/07/25 04:44:13;;;;;;;3.00;1.40;;;;;;;;;;5057190;28;20171;-45
2023/07/25 04:46:39;;;;;;;3.55;1.38;;;;;;;;;;5057258;28;20167;-46
2023/07/25 04:49:06;;;;;;;3.75;1.27;;;;;;;;;;5057123;28;20587;-45
2023/07/25 04:51:32;;;;;;;2.40;1.35;;;;;;;;;;5055865;28;20542;-45
2023/07/25 04:53:58;;;;;;;4.47;1.60;;;;;;;;;;5056995;28;20473;-46
2023/07/25 04:56:24;;;;;;;4.00;1.75;;;;;;;;;;5050797;28;20218;-45
2023/07/25 04:58:50;;;;;;;1.70;1.48;;;;;;;;;;5051536;28;20176;-46
2023/07/25 05:01:16;;;;;;;2.35;1.45;;;;;;;;;;5053795;28;20182;-45
2023/07/25 05:03:42;;;;;;;3.22;1.52;;;;;;;;;;5053848;28;20312;-45
2023/07/25 05:06:08;;;;;;;1.65;1.30;;;;;;;;;;5056925;28;20178;-45
2023/07/25 05:08:34;;;;;;;2.25;1.25;;;;;;;;;;5044283;28;20192;-45
2023/07/25 05:11:01;;;;;;;2.13;1.10;;;;;;;;;;5049126;28;20182;-45
2023/07/25 05:13:27;;;;;;;2.40;1.30;;;;;;;;;;5045805;28;20550;-45
2023/07/25 05:15:53;;;;;;;1.50;1.40;;;;;;;;;;5050554;28;20194;-46
2023/07/25 05:18:19;;;;;;;2.95;1.70;;;;;;;;;;5053434;28;20213;-46
2023/07/25 05:20:45;;;;;;;3.00;1.63;;;;;;;;;;5053707;28;20179;-45
2023/07/25 05:23:11;;;;;;;2.75;1.52;;;;;;;;;;5057181;28;20226;-45
2023/07/25 05:25:38;;;;;;;1.65;1.30;;;;;;;;;;5051304;28;20252;-46
2023/07/25 05:28:04;;;;;;;2.15;1.40;;;;;;;;;;5051099;28;20233;-46
2023/07/25 05:30:31;;;;;;;3.72;1.70;;;;;;;;;;5049285;28;20179;-45
2023/07/25 05:32:57;;;;;;;4.40;1.58;;;;;;;;;;5053649;28;20500;-45
2023/07/25 05:35:23;;;;;;;3.92;1.60;;;;;;;;;;5047152;28;20187;-45
2023/07/25 05:37:49;;;;;;;5.60;1.80;;;;;;;;;;5050588;28;20211;-46
2023/07/25 05:40:15;;;;;;;6.35;2.00;;;;;;;;;;5044896;28;20193;-46
2023/07/25 05:42:41;;;;;;;4.57;2.03;;;;;;;;;;5042076;28;20194;-46
2023/07/25 05:45:07;;;;;;;2.15;1.60;;;;;;;;;;5050160;28;20179;-45
2023/07/25 05:47:33;;;;;;;6.30;1.80;;;;;;;;;;5052549;28;20492;-49
2023/07/25 05:49:59;;;;;;;8.02;2.70;;;;;;;;;;5041918;28;20578;-46
2023/07/25 05:52:25;;;;;;;5.05;1.95;;;;;;;;;;5054398;28;20585;-48
2023/07/25 05:54:52;;;;;;;12.05;2.10;;;;;;;;;;5053289;28;20602;-47
2023/07/25 05:57:18;;;;;;;9.02;2.42;;;;;;;;;;5052507;28;20199;-47
2023/07/25 05:59:44;;;;;;;11.13;2.13;;;;;;;;;;5045033;28;20175;-47
2023/07/25 06:02:10;;;;;;;3.95;2.03;;;;;;;;;;5050870;28;20250;-47
2023/07/25 06:04:36;;;;;;;11.35;2.83;;;;;;;;;;5048205;28;20187;-46
2023/07/25 06:07:02;;;;;;;8.27;2.65;;;;;;;;;;5053581;28;20654;-46
2023/07/25 06:09:28;;;;;;;7.65;2.40;;;;;;;;;;5050202;28;20183;-46
2023/07/25 06:11:55;;;;;;;6.47;3.20;;;;;;;;;;5042269;28;20194;-47
2023/07/25 06:14:21;;;;;;;6.75;3.30;;;;;;;;;;5044977;28;20175;-44
2023/07/25 06:16:47;;;;;;;8.15;3.50;;;;;;;;;;5053852;28;20217;-44
2023/07/25 06:19:13;;;;;;;9.82;3.85;;;;;;;;;;5048962;28;20184;-45
2023/07/25 06:21:39;;;;;;;9.40;4.05;;;;;;;;;;5051271;28;20179;-46
2023/07/25 06:24:05;;;;;;;16.08;5.15;;;;;;;;;;5050705;28;20248;-46
2023/07/25 06:26:31;;;;;;;18.17;6.50;;;;;;;;;;5053063;28;20582;-47
2023/07/25 06:28:57;;;;;;;10.40;4.60;;;;;;;;;;5045852;28;20221;-47
2023/07/25 06:31:23;;;;;;;9.40;4.57;;;;;;;;;;5053032;28;20179;-46
2023/07/25 06:33:49;;;;;;;15.60;4.40;;;;;;;;;;5052401;28;20183;-50
2023/07/25 06:36:15;;;;;;;6.85;2.85;;;;;;;;;;5048095;28;20219;-46
2023/07/25 06:38:41;;;;;;;6.07;2.47;;;;;;;;;;5051567;28;20264;-48
2023/07/25 06:41:07;;;;;;;5.78;2.58;;;;;;;;;;5050444;28;20183;-44
2023/07/25 06:43:33;;;;;;;7.93;3.85;;;;;;;;;;5052630;28;20440;-45
2023/07/25 06:45:59;;;;;;;4.72;2.92;;;;;;;;;;5055768;28;20182;-45
2023/07/25 06:48:25;;;;;;;3.78;2.15;;;;;;;;;;5056344;28;20242;-46
2023/07/25 06:50:50;;;;;;;5.13;2.75;;;;;;;;;;5052182;28;20198;-47
2023/07/25 06:53:16;;;;;;;4.60;2.38;;;;;;;;;;5056773;28;20183;-46
2023/07/25 06:55:42;;;;;;;18.55;2.28;;;;;;;;;;5054057;28;20214;-50
2023/07/25 06:58:08;;;;;;;7.15;2.20;;;;;;;;;;5056556;28;20221;-49
2023/07/25 07:00:38;;;;;;;7.78;2.00;;;;;;;;;;5051768;28;20201;-49
2023/07/25 07:03:07;;;;;;;6.18;2.28;;;;;;;;;;5055369;28;20183;-46
2023/07/25 07:05:33;;;;;;;3.47;1.85;;;;;;;;;;5058451;28;20258;-47
2023/07/25 07:08:00;;;;;;;2.97;1.85;;;;;;;;;;5056443;28;20183;-47
2023/07/25 07:10:26;;;;;;;5.82;2.10;;;;;;;;;;5055854;28;20179;-47
2023/07/25 07:12:53;;;;;;;3.95;1.90;;;;;;;;;;5056712;28;20458;-49
2023/07/25 07:15:23;;;;;;;2.08;1.65;;;;;;;;;;5056861;28;20677;-47
2023/07/25 07:17:49;;;;;;;3.95;2.00;;;;;;;;;;5042617;28;20206;-45
2023/07/25 07:20:15;;;;;;;4.40;2.03;;;;;;;;;;5054350;28;20236;-43
2023/07/25 07:22:41;;;;;;;2.47;2.10;;;;;;;;;;5060572;28;20282;-47
2023/07/25 07:25:07;;;;;;;2.40;1.75;;;;;;;;;;5056379;28;20223;-44
2023/07/25 07:27:33;;;;;;;3.15;2.03;;;;;;;;;;5056163;28;20183;-51
2023/07/25 07:29:59;;;;;;;4.97;1.80;;;;;;;;;;5055944;28;20202;-50
2023/07/25 07:32:25;;;;;;;6.25;1.95;;;;;;;;;;5052564;28;20555;-60
2023/07/25 07:34:51;;;;;;;2.83;1.95;;;;;;;;;;5054658;28;20205;-50
2023/07/25 07:37:17;;;;;;;7.13;2.22;;;;;;;;;;5052966;28;20529;-50
2023/07/25 07:39:43;;;;;;;12.35;2.72;;;;;;;;;;5050016;28;20187;-50
2023/07/25 07:42:09;;;;;;;8.20;1.90;;;;;;;;;;5056051;28;20182;-51
2023/07/25 07:44:35;;;;;;;5.22;2.28;;;;;;;;;;5051653;28;20214;-50
2023/07/25 07:47:01;;;;;;;5.00;2.05;;;;;;;;;;5049591;28;20271;-52
2023/07/25 07:49:27;;;;;;;9.43;3.28;;;;;;;;;;5053019;28;20498;-51
2023/07/25 07:51:52;;;;;;;5.50;1.75;;;;;;;;;;5047846;28;20186;-55
2023/07/25 07:54:18;;;;;;;6.00;2.15;;;;;;;;;;5047174;28;20270;-51
2023/07/25 07:56:44;;;;;;;4.78;2.10;;;;;;;;;;5049826;28;20294;-52
2023/07/25 07:59:10;;;;;;;11.43;3.95;;;;;;;;;;5049067;28;20304;-50
2023/07/25 08:01:36;;;;;;;19.75;4.80;;;;;;;;;;5048683;28;20508;-49
2023/07/25 08:04:02;;;;;;;18.38;4.70;;;;;;;;;;5048406;28;20243;-51
2023/07/25 08:06:28;;;;;;;13.13;3.75;;;;;;;;;;5055141;28;20195;-50
2023/07/25 08:08:54;;;;;;;5.82;2.40;;;;;;;;;;5047816;28;20215;-49
2023/07/25 08:11:20;;;;;;;3.17;2.65;;;;;;;;;;5046775;28;20183;-52
2023/07/25 08:13:46;;;;;;;7.60;2.80;;;;;;;;;;5038867;28;20180;-51
2023/07/25 08:16:12;;;;;;;4.53;2.05;;;;;;;;;;5049160;28;20239;-47
2023/07/25 08:18:38;;;;;;;4.97;2.13;;;;;;;;;;5046099;28;20594;-50
2023/07/25 08:21:04;;;;;;;2.65;2.30;;;;;;;;;;5046591;28;20191;-46
2023/07/25 08:23:30;;;;;;;2.33;1.80;;;;;;;;;;5050344;28;20191;-52
2023/07/25 08:25:56;;;;;;;1.95;1.77;;;;;;;;;;5050149;28;20179;-52
2023/07/25 08:28:22;;;;;;;2.50;1.98;;;;;;;;;;5047626;28;20191;-52
2023/07/25 08:30:48;;;;;;;3.75;1.85;;;;;;;;;;5048742;28;20218;-53
2023/07/25 08:33:19;;;;;;;2.22;2.00;;;;;;;;;;5053903;28;20191;-53
2023/07/25 08:35:47;;;;;;;1.83;1.70;;;;;;;;;;5054461;28;20567;-53
2023/07/25 08:38:13;;;;;;;3.78;1.80;;;;;;;;;;5047064;28;20642;-53
2023/07/25 08:40:39;;;;;;;3.67;1.33;;;;;;;;;;5052105;28;20269;-53
2023/07/25 08:43:09;;;;;;;5.72;2.20;;;;;;;;;;5054755;28;20179;-53
2023/07/25 08:45:36;;;;;;;2.15;1.92;;;;;;;;;;5048104;28;20187;-53
2023/07/25 08:48:04;;;;;;;3.45;1.83;;;;;;;;;;5049516;28;20187;-53
2023/07/25 08:50:31;;;;;;;4.18;1.92;;;;;;;;;;5044754;28;20186;-53
2023/07/25 08:52:57;;;;;;;1.73;1.63;;;;;;;;;;5048871;28;20199;-53
2023/07/25 08:55:23;;;;;;;6.47;2.03;;;;;;;;;;5041971;28;20206;-53
2023/07/25 08:57:51;;;;;;;2.25;1.73;;;;;;;;;;5047543;28;20290;-53
2023/07/25 09:00:17;;;;;;;2.22;1.60;;;;;;;;;;5050168;28;20269;-53
2023/07/25 09:02:43;;;;;;;1.73;1.42;;;;;;;;;;5051428;28;20221;-53
2023/07/25 09:05:10;;;;;;;2.15;1.38;;;;;;;;;;5041327;28;20266;-53
2023/07/25 09:07:36;;;;;;;2.47;1.42;;;;;;;;;;5043644;28;20195;-53
2023/07/25 09:10:02;;;;;;;2.00;1.70;;;;;;;;;;5053014;28;20199;-53
2023/07/25 09:12:28;;;;;;;2.00;1.80;;;;;;;;;;5052638;28;20192;-53
2023/07/25 09:14:54;;;;;;;2.70;2.13;;;;;;;;;;5047991;28;20190;-53
2023/07/25 09:17:20;;;;;;;3.47;1.98;;;;;;;;;;5050331;28;20221;-53
2023/07/25 09:19:47;;;;;;;2.15;1.90;;;;;;;;;;5052537;28;20187;-53
2023/07/25 09:22:30;;;;;;;2.05;1.70;;;;;;;;;;5059152;28;20185;-53
2023/07/25 09:24:56;;;;;;;2.58;1.50;;;;;;;;;;5053369;28;20195;-53
2023/07/25 09:27:22;;;;;;;1.63;1.52;;;;;;;;;;5054106;28;20191;-53
2023/07/25 09:29:51;;;;;;;2.15;1.73;;;;;;;;;;5058048;28;20601;-53
2023/07/25 09:32:23;;;;;;;3.22;1.90;;;;;;;;;;5044102;28;20184;-53
2023/07/25 09:35:02;;;;;;;2.25;1.70;;;;;;;;;;5051848;28;20195;-53
2023/07/25 09:37:29;;;;;;;1.70;1.60;;;;;;;;;;5052525;28;20213;-53
2023/07/25 09:39:55;;;;;;;3.00;1.50;;;;;;;;;;5059350;28;20179;-53
2023/07/25 09:42:24;;;;;;;2.92;1.75;;;;;;;;;;5063431;28;20190;-53
2023/07/25 09:44:51;;;;;;;1.85;1.73;;;;;;;;;;5052198;28;20194;-53
2023/07/25 09:47:28;;;;;;;3.38;1.90;;;;;;;;;;5047388;28;20179;-53
2023/07/25 09:49:55;;;;;;;2.35;2.15;;;;;;;;;;5047553;28;20236;-53
2023/07/25 09:52:21;;;;;;;2.03;1.70;;;;;;;;;;5045606;28;20843;-53
2023/07/25 09:54:47;;;;;;;2.08;1.58;;;;;;;;;;5039966;28;20190;-53
2023/07/25 09:57:13;;;;;;;2.38;1.90;;;;;;;;;;5046441;28;20214;-53
2023/07/25 09:59:39;;;;;;;1.70;1.50;;;;;;;;;;5053061;28;20554;-53
2023/07/25 10:02:05;;;;;;;2.00;1.55;;;;;;;;;;5051045;28;20554;-53
2023/07/25 10:04:32;;;;;;;2.03;1.52;;;;;;;;;;5048464;28;20183;-53
2023/07/25 10:07:00;;;;;;;1.70;1.60;;;;;;;;;;5048893;28;20191;-53
2023/07/25 10:09:26;;;;;;;1.98;1.60;;;;;;;;;;5046724;28;20190;-52
2023/07/25 10:11:53;;;;;;;3.38;1.58;;;;;;;;;;5047860;28;20179;-52
2023/07/25 10:14:19;;;;;;;3.53;1.83;;;;;;;;;;5048718;28;20290;-52
2023/07/25 10:16:46;;;;;;;3.13;1.55;;;;;;;;;;5053021;28;20206;-52
2023/07/25 10:19:12;;;;;;;1.70;1.60;;;;;;;;;;5049798;28;20181;-52
2023/07/25 10:21:47;;;;;;;5.15;1.70;;;;;;;;;;5055628;28;20179;-52
2023/07/25 10:24:13;;;;;;;2.95;1.58;;;;;;;;;;5060071;28;20237;-52
2023/07/25 10:26:53;;;;;;;2.70;1.52;;;;;;;;;;5050480;28;20187;-52
2023/07/25 10:29:37;;;;;;;4.38;1.60;;;;;;;;;;5057175;28;20181;-52
2023/07/25 10:32:03;;;;;;;2.38;1.73;;;;;;;;;;5057583;28;20187;-52
2023/07/25 10:34:49;;;;;;;4.75;1.90;;;;;;;;;;5055761;28;20266;-51
2023/07/25 10:37:36;;;;;;;5.22;1.80;;;;;;;;;;5047247;28;20196;-51
2023/07/25 10:40:05;;;;;;;2.75;1.95;;;;;;;;;;5043203;28;20178;-51
2023/07/25 10:42:46;;;;;;;2.15;1.80;;;;;;;;;;5055983;28;20198;-52
2023/07/25 10:45:27;;;;;;;4.43;2.38;;;;;;;;;;5056525;28;20183;-52
2023/07/25 10:47:54;;;;;;;5.47;2.22;;;;;;;;;;5055717;28;20272;-52
2023/07/25 10:50:20;;;;;;;2.92;1.98;;;;;;;;;;5055772;28;20280;-52
2023/07/25 10:52:47;;;;;;;2.05;1.67;;;;;;;;;;5061606;28;20179;-52
2023/07/25 10:55:14;;;;;;;4.95;1.83;;;;;;;;;;5052124;28;20187;-52
2023/07/25 10:57:40;;;;;;;3.63;2.22;;;;;;;;;;5062882;28;20253;-52
2023/07/25 11:00:08;;;;;;;10.00;2.22;;;;;;;;;;5050882;28;20225;-62
2023/07/25 11:02:36;;;;;;;4.10;2.30;;;;;;;;;;5050950;28;20187;-50
2023/07/25 11:05:14;;;;;;;5.78;2.05;;;;;;;;;;5056426;28;20565;-50
2023/07/25 11:07:46;;;;;;;2.13;1.75;;;;;;;;;;5058151;28;20558;-57
2023/07/25 11:10:12;;;;;;;2.60;1.73;;;;;;;;;;5055068;28;20183;-53
2023/07/25 11:12:38;;;;;;;8.43;2.58;;;;;;;;;;5055811;28;20183;-53
2023/07/25 11:15:04;;;;;;;9.40;2.33;;;;;;;;;;5057010;28;20183;-50
2023/07/25 11:17:30;;;;;;;3.92;1.98;;;;;;;;;;5056875;28;20214;-50
2023/07/25 11:20:16;;;;;;;1.85;1.70;;;;;;;;;;5059941;28;20179;-50
2023/07/25 11:22:42;;;;;;;2.88;2.28;;;;;;;;;;5063793;28;20171;-49
2023/07/25 11:25:09;;;;;;;3.78;1.73;;;;;;;;;;5055928;28;20191;-51
2023/07/25 11:27:42;;;;;;;5.75;2.03;;;;;;;;;;5050300;28;20180;-53
2023/07/25 11:30:19;;;;;;;4.90;2.03;;;;;;;;;;5055039;28;20349;-52
2023/07/25 11:32:48;;;;;;;4.28;1.80;;;;;;;;;;5056236;28;20705;-49
2023/07/25 11:35:17;;;;;;;6.53;2.25;;;;;;;;;;5060461;28;20178;-52
2023/07/25 11:37:44;;;;;;;2.38;2.17;;;;;;;;;;5054600;28;20296;-50
2023/07/25 11:40:14;;;;;;;7.07;2.05;;;;;;;;;;5055701;28;20171;-50
2023/07/25 11:42:42;;;;;;;2.42;1.95;;;;;;;;;;5054153;28;20206;-48
2023/07/25 11:45:10;;;;;;;3.80;1.90;;;;;;;;;;5055074;28;20179;-50
2023/07/25 11:47:36;;;;;;;3.33;2.42;;;;;;;;;;5055152;28;20270;-51
2023/07/25 11:50:03;;;;;;;2.25;1.95;;;;;;;;;;5053112;28;20611;-55
2023/07/25 11:52:29;;;;;;;1.98;1.77;;;;;;;;;;5058621;28;20183;-48
2023/07/25 11:54:55;;;;;;;3.30;1.80;;;;;;;;;;5055115;28;20237;-50
2023/07/25 11:57:21;;;;;;;4.72;2.25;;;;;;;;;;5053518;28;20249;-49
2023/07/25 11:59:47;;;;;;;4.07;2.60;;;;;;;;;;5053520;28;20241;-54
2023/07/25 12:02:13;;;;;;;4.28;2.35;;;;;;;;;;5043825;28;20176;-56
2023/07/25 12:04:43;;;;;;;6.50;2.50;;;;;;;;;;5045038;28;20187;-55
2023/07/25 12:07:09;;;;;;;3.75;2.20;;;;;;;;;;5055506;28;20179;-53
2023/07/25 12:09:36;;;;;;;3.10;1.95;;;;;;;;;;5052254;28;20210;-51
2023/07/25 12:12:02;;;;;;;2.80;2.33;;;;;;;;;;5056000;28;20464;-50
2023/07/25 12:14:28;;;;;;;4.88;2.40;;;;;;;;;;5053872;28;20186;-53
2023/07/25 12:16:54;;;;;;;4.82;2.50;;;;;;;;;;5050496;28;20215;-51
2023/07/25 12:19:21;;;;;;;2.80;1.90;;;;;;;;;;5046716;28;20179;-51
2023/07/25 12:21:47;;;;;;;3.08;1.98;;;;;;;;;;5050328;28;20179;-51
2023/07/25 12:24:16;;;;;;;3.13;2.10;;;;;;;;;;5048232;28;20270;-57
2023/07/25 12:26:43;;;;;;;8.20;2.03;;;;;;;;;;5049234;28;20250;-49
2023/07/25 12:29:16;;;;;;;6.18;2.00;;;;;;;;;;5051645;28;20186;-51
2023/07/25 12:31:43;;;;;;;5.50;2.20;;;;;;;;;;5053627;28;20234;-51
2023/07/25 12:34:09;;;;;;;5.03;2.28;;;;;;;;;;5055481;28;20621;-49
2023/07/25 12:36:35;;;;;;;4.53;2.25;;;;;;;;;;5047703;28;20210;-56
2023/07/25 12:39:01;;;;;;;10.77;3.03;;;;;;;;;;5045845;28;20238;-51
2023/07/25 12:41:27;;;;;;;4.80;2.20;;;;;;;;;;5047290;28;20190;-51
2023/07/25 12:43:52;;;;;;;6.13;2.28;;;;;;;;;;5052951;28;20449;-54
2023/07/25 12:46:18;;;;;;;4.32;2.45;;;;;;;;;;5049913;28;20266;-51
2023/07/25 12:48:44;;;;;;;6.88;2.38;;;;;;;;;;5050288;28;20192;-50
2023/07/25 12:51:10;;;;;;;4.03;1.90;;;;;;;;;;5049249;28;20193;-49
2023/07/25 12:53:36;;;;;;;2.47;1.98;;;;;;;;;;5054619;28;20202;-51
2023/07/25 12:56:02;;;;;;;2.97;1.95;;;;;;;;;;5048320;28;20258;-50
2023/07/25 12:58:28;;;;;;;3.25;1.83;;;;;;;;;;5051955;28;20612;-59
2023/07/25 13:00:55;;;;;;;11.60;1.75;;;;;;;;;;5050279;28;20607;-51
2023/07/25 13:03:21;;;;;;;3.58;1.52;;;;;;;;;;5048981;28;20190;-50
2023/07/25 13:05:47;;;;;;;3.05;2.03;;;;;;;;;;5047839;28;20626;-62
2023/07/25 13:08:13;;;;;;;3.03;1.73;;;;;;;;;;5051641;28;20197;-55
2023/07/25 13:10:39;;;;;;;4.93;2.10;;;;;;;;;;5053356;28;20258;-51
2023/07/25 13:13:05;;;;;;;3.45;1.85;;;;;;;;;;5054649;28;20183;-50
2023/07/25 13:15:33;;;;;;;6.60;1.70;;;;;;;;;;5055141;28;20179;-47
2023/07/25 13:17:58;;;;;;;2.70;1.40;;;;;;;;;;5049561;28;20210;-52
2023/07/25 13:20:24;;;;;;;2.13;1.80;;;;;;;;;;5051872;28;20546;-52
2023/07/25 13:22:50;;;;;;;4.95;1.55;;;;;;;;;;5052726;28;20213;-55
2023/07/25 13:25:16;;;;;;;3.13;1.55;;;;;;;;;;5058601;28;20514;-55
2023/07/25 13:27:42;;;;;;;1.63;1.50;;;;;;;;;;5042194;28;20199;-55
2023/07/25 13:30:08;;;;;;;4.28;1.52;;;;;;;;;;5062190;28;20234;-55
2023/07/25 13:32:34;;;;;;;4.93;1.50;;;;;;;;;;5054567;28;20262;-55
2023/07/25 13:35:00;;;;;;;2.70;1.60;;;;;;;;;;5051094;28;20522;-55
2023/07/25 13:37:26;;;;;;;2.75;1.63;;;;;;;;;;5042168;28;20257;-55
2023/07/25 13:39:52;;;;;;;2.17;1.30;;;;;;;;;;5051058;28;20175;-55
2023/07/25 13:42:18;;;;;;;3.47;1.48;;;;;;;;;;5048561;28;20183;-55
2023/07/25 13:44:44;;;;;;;2.47;1.42;;;;;;;;;;5042027;28;20514;-55
2023/07/25 13:47:10;;;;;;;1.63;1.52;;;;;;;;;;5048036;28;20454;-55
2023/07/25 13:49:36;;;;;;;1.80;1.48;;;;;;;;;;5050451;28;20178;-55
2023/07/25 13:52:02;;;;;;;1.63;1.42;;;;;;;;;;5060667;28;20570;-55
2023/07/25 13:54:30;;;;;;;1.60;1.30;;;;;;;;;;5060050;28;20187;-55
2023/07/25 13:56:56;;;;;;;1.95;1.65;;;;;;;;;;5050538;28;21569;-55
2023/07/25 13:59:22;;;;;;;5.38;1.73;;;;;;;;;;5057887;28;20183;-55
2023/07/25 14:01:47;;;;;;;1.40;1.30;;;;;;;;;;5051799;28;20183;-56
2023/07/25 14:04:13;;;;;;;1.50;1.40;;;;;;;;;;5044142;28;20175;-56
2023/07/25 14:06:39;;;;;;;2.13;1.15;;;;;;;;;;5046310;28;20182;-56
2023/07/25 14:09:05;;;;;;;1.95;1.15;;;;;;;;;;5047970;28;20207;-56
2023/07/25 14:11:31;;;;;;;1.50;1.40;;;;;;;;;;5047967;28;20187;-55
2023/07/25 14:13:57;;;;;;;1.50;1.40;;;;;;;;;;5038403;28;20187;-55
2023/07/25 14:16:23;;;;;;;1.35;1.25;;;;;;;;;;5044105;28;20206;-55
2023/07/25 14:18:49;;;;;;;1.92;1.40;;;;;;;;;;5051221;28;20282;-55
2023/07/25 14:21:15;;;;;;;1.98;1.30;;;;;;;;;;5052168;28;20333;-55
2023/07/25 14:23:41;;;;;;;4.88;1.60;;;;;;;;;;5053813;28;20262;-55
2023/07/25 14:26:07;;;;;;;5.80;1.60;;;;;;;;;;5052986;28;20183;-55
2023/07/25 14:28:33;;;;;;;3.13;1.55;;;;;;;;;;5051548;28;20191;-55
2023/07/25 14:30:59;;;;;;;3.42;1.67;;;;;;;;;;5047745;28;20302;-55
2023/07/25 14:33:25;;;;;;;4.65;1.60;;;;;;;;;;5052694;28;20431;-55
2023/07/25 14:35:51;;;;;;;2.13;1.52;;;;;;;;;;5052570;28;20590;-55
2023/07/25 14:38:17;;;;;;;2.03;1.80;;;;;;;;;;5051075;28;20202;-55
2023/07/25 14:40:44;;;;;;;3.10;1.65;;;;;;;;;;5043790;28;20225;-55